Time,TemperatureF,DewpointF,PressureIn,WindDirection,WindDirectionDegrees,WindSpeedMPH,WindSpeedGustMPH,Humidity,HourlyPrecipIn,Conditions,Clouds,dailyrainin,SolarRadiationWatts/m^2,SoftwareType,DateUTC
2013-08-22 00:00:00,85.1,71.6,30.03,ENE,68,0.0,0.0,64,0.00,,---,0.00,0.00,VWS V14.00,2013-08-22 05:00:00,
2013-08-22 00:30:00,85.0,71.5,30.03,ENE,68,0.0,0.0,64,0.00,,---,0.00,0.00,VWS V14.00,2013-08-22 05:30:00,
2013-08-22 01:00:00,85.0,71.5,30.02,ENE,68,0.0,0.0,64,0.00,,---,0.00,0.00,VWS V14.00,2013-08-22 06:00:00,
2013-08-22 01:30:00,84.9,71.4,30.02,ENE,68,0.0,0.0,64,0.00,,---,0.00,0.00,VWS V14.00,2013-08-22 06:30:00,
2013-08-22 02:00:00,84.7,71.2,30.02,ENE,68,0.0,0.0,64,0.00,,---,0.00,0.00,VWS V14.00,2013-08-22 07:00:00,
2013-08-22 02:30:00,84.5,71.0,30.02,ENE,68,0.0,0.0,64,0.00,,---,0.00,0.00,VWS V14.00,2013-08-22 07:30:00,
2013-08-22 03:00:00,84.4,70.9,30.02,ENE,68,0.0,0.0,64,0.00,,---,0.00,0.00,VWS V14.00,2013-08-22 08:00:00,
2013-08-22 03:30:00,84.2,70.7,30.01,ENE,68,0.0,0.0,64,0.00,,---,0.00,0.00,VWS V14.00,2013-08-22 08:30:00,
2013-08-22 04:00:00,84.1,70.6,30.01,ENE,68,0.0,0.0,64,0.00,,---,0.00,0.00,VWS V14.00,2013-08-22 09:00:00,
2013-08-22 04:30:00,83.9,70.4,30.02,ENE,68,0.0,0.0,64,0.00,,---,0.00,0.00,VWS V14.00,2013-08-22 09:30:00,
2013-08-22 05:00:00,83.8,70.3,30.03,ENE,68,0.0,0.0,64,0.00,,---,0.00,0.00,VWS V14.00,2013-08-22 10:00:00,
2013-08-22 05:30:00,83.6,70.1,30.03,ENE,68,0.0,0.0,64,0.00,,---,0.00,0.00,VWS V14.00,2013-08-22 10:30:00,
2013-08-22 06:00:00,83.4,70.0,30.04,ENE,68,0.0,0.0,64,0.00,,---,0.00,0.00,VWS V14.00,2013-08-22 11:00:00,
2013-08-22 06:30:00,83.3,69.9,30.04,ENE,68,0.0,0.0,64,0.00,,---,0.00,0.00,VWS V14.00,2013-08-22 11:30:00,
2013-08-22 07:00:00,83.1,69.7,30.05,ENE,68,0.0,0.0,64,0.00,,---,0.00,0.00,VWS V14.00,2013-08-22 12:00:00,
2013-08-22 07:30:00,83.1,71.9,30.06,ENE,68,0.0,0.0,69,0.00,,---,0.00,0.00,VWS V14.00,2013-08-22 12:30:00,
2013-08-22 08:00:00,82.5,71.3,30.06,ENE,68,0.0,0.0,69,0.00,,---,0.00,0.00,VWS V14.00,2013-08-22 13:00:00,
2013-08-22 08:30:00,82.4,70.8,30.06,ENE,68,0.0,0.0,68,0.00,,---,0.00,0.00,VWS V14.00,2013-08-22 13:30:00,
2013-08-22 09:00:00,82.4,70.8,30.06,ENE,68,0.0,0.0,68,0.00,,---,0.00,0.00,VWS V14.00,2013-08-22 14:00:00,
2013-08-22 09:30:00,82.3,70.2,30.06,ENE,68,0.0,0.0,67,0.00,,---,0.00,0.00,VWS V14.00,2013-08-22 14:30:00,
2013-08-22 10:00:00,82.3,69.8,30.06,ENE,68,0.0,0.0,66,0.00,,---,0.00,0.00,VWS V14.00,2013-08-22 15:00:00,
2013-08-22 10:30:00,82.3,69.4,30.05,ENE,68,0.0,0.0,65,0.00,,---,0.00,0.00,VWS V14.00,2013-08-22 15:30:00,
2013-08-22 11:00:00,82.4,69.0,30.06,ENE,68,0.0,0.0,64,0.00,,---,0.00,0.00,VWS V14.00,2013-08-22 16:00:00,
2013-08-22 11:30:00,82.5,69.1,30.05,ENE,68,0.0,0.0,64,0.00,,---,0.00,0.00,VWS V14.00,2013-08-22 16:30:00,
2013-08-22 12:00:00,82.5,68.6,30.04,ENE,68,0.0,0.0,63,0.00,,---,0.00,0.00,VWS V14.00,2013-08-22 17:00:00,
2013-08-22 12:30:00,82.6,68.7,30.03,ENE,68,0.0,0.0,63,0.00,,---,0.00,0.00,VWS V14.00,2013-08-22 17:30:00,
2013-08-22 13:00:00,82.6,68.7,30.01,ENE,68,0.0,0.0,63,0.00,,---,0.00,0.00,VWS V14.00,2013-08-22 18:00:00,
2013-08-22 13:30:00,82.6,68.3,30.00,ENE,68,0.0,0.0,62,0.00,,---,0.00,0.00,VWS V14.00,2013-08-22 18:30:00,
2013-08-22 14:00:00,82.7,68.4,29.99,ENE,68,0.0,0.0,62,0.00,,---,0.00,0.00,VWS V14.00,2013-08-22 19:00:00,
2013-08-22 14:30:00,82.6,66.3,29.99,ENE,68,0.0,0.0,58,0.00,,---,0.00,0.00,VWS V14.00,2013-08-22 19:30:00,
2013-08-22 15:00:00,82.8,71.6,29.97,ENE,68,0.0,0.0,69,0.00,,---,0.00,0.00,VWS V14.00,2013-08-22 20:00:00,
2013-08-22 15:30:00,83.1,71.4,29.97,ENE,68,0.0,0.0,68,0.00,,---,0.00,0.00,VWS V14.00,2013-08-22 20:30:00,
2013-08-22 16:00:00,83.0,71.4,29.95,ENE,68,0.0,0.0,68,0.00,,---,0.00,0.00,VWS V14.00,2013-08-22 21:00:00,
2013-08-22 16:30:00,83.0,70.9,29.95,ENE,68,0.0,0.0,67,0.00,,---,0.00,0.00,VWS V14.00,2013-08-22 21:30:00,
2013-08-22 17:00:00,82.9,70.4,29.95,ENE,68,0.0,0.0,66,0.00,,---,0.00,0.00,VWS V14.00,2013-08-22 22:00:00,
2013-08-22 17:30:00,82.9,69.9,29.94,ENE,68,0.0,0.0,65,0.00,,---,0.00,0.00,VWS V14.00,2013-08-22 22:30:00,
2013-08-22 18:00:00,82.8,69.8,29.95,ENE,68,0.0,0.0,65,0.00,,---,0.00,0.00,VWS V14.00,2013-08-22 23:00:00,
2013-08-22 18:30:00,82.7,68.8,29.94,ENE,68,0.0,0.0,63,0.00,,---,0.00,0.00,VWS V14.00,2013-08-22 23:30:00,
2013-08-22 19:00:00,82.7,68.8,29.94,ENE,68,0.0,0.0,63,0.00,,---,0.00,0.00,VWS V14.00,2013-08-23 00:00:00,
2013-08-22 19:30:00,82.7,68.8,29.94,ENE,68,0.0,0.0,63,0.00,,---,0.00,0.00,VWS V14.00,2013-08-23 00:30:00,
2013-08-22 20:00:00,82.7,68.4,29.94,ENE,68,0.0,0.0,62,0.00,,---,0.00,0.00,VWS V14.00,2013-08-23 01:00:00,
2013-08-22 20:30:00,82.7,68.4,29.95,ENE,68,0.0,0.0,62,0.00,,---,0.00,0.00,VWS V14.00,2013-08-23 01:30:00,
2013-08-22 21:00:00,82.6,67.8,29.96,ENE,68,0.0,0.0,61,0.00,,---,0.00,0.00,VWS V14.00,2013-08-23 02:00:00,
2013-08-22 21:30:00,82.6,67.8,29.97,ENE,68,0.0,0.0,61,0.00,,---,0.00,0.00,VWS V14.00,2013-08-23 02:30:00,
2013-08-22 22:00:00,82.5,67.7,29.97,ENE,68,0.0,0.0,61,0.00,,---,0.00,0.00,VWS V14.00,2013-08-23 03:00:00,
2013-08-22 22:30:00,82.4,67.6,29.98,ENE,68,0.0,0.0,61,0.00,,---,0.00,0.00,VWS V14.00,2013-08-23 03:30:00,
2013-08-22 23:00:00,82.4,67.6,29.98,ENE,68,0.0,0.0,61,0.00,,---,0.00,0.00,VWS V14.00,2013-08-23 04:00:00,
2013-08-22 23:30:00,82.3,67.5,29.98,ENE,68,0.0,0.0,61,0.00,,---,0.00,0.00,VWS V14.00,2013-08-23 04:30:00,